Time;durP1;ratioP1;P1;durP2;ratioP2;P2;SDS_P1;SDS_P2;PMS_P1;PMS_P2;Temp;Humidity;BMP_temperature;BMP_pressure;BME280_temperature;BME280_humidity;BME280_pressure;Samples;Min_cycle;Max_cycle;Signal;HPM_P1;HPM_P2
2022/04/18 00:21:08;;;;;;;5.03;4.53;;;;;;;;;;4814724;28;20406;-62
2022/04/18 00:23:33;;;;;;;7.95;4.62;;;;;;;;;;4199073;34;20182;-62
2022/04/18 00:25:59;;;;;;;8.75;4.62;;;;;;;;;;4197178;34;20150;-63
2022/04/18 00:28:25;;;;;;;6.53;4.57;;;;;;;;;;4191116;34;20293;-63
2022/04/18 00:30:53;;;;;;;16.27;4.50;;;;;;;;;;4191325;34;20136;-63
2022/04/18 00:33:19;;;;;;;7.62;4.72;;;;;;;;;;4190999;34;20106;-64
2022/04/18 00:35:44;;;;;;;7.05;4.62;;;;;;;;;;4191045;34;20114;-63
2022/04/18 00:38:10;;;;;;;6.18;4.93;;;;;;;;;;4191122;34;20094;-65
2022/04/18 00:40:36;;;;;;;5.50;3.92;;;;;;;;;;4191160;34;20152;-65
2022/04/18 00:43:06;;;;;;;9.90;4.35;;;;;;;;;;4189924;34;20206;-63
2022/04/18 00:45:32;;;;;;;6.25;4.80;;;;;;;;;;4189810;34;20553;-63
2022/04/18 00:47:59;;;;;;;6.43;4.53;;;;;;;;;;4178017;34;20140;-63
2022/04/18 00:50:26;;;;;;;10.10;4.22;;;;;;;;;;4178224;34;20121;-63
2022/04/18 00:52:53;;;;;;;9.20;4.62;;;;;;;;;;4177933;34;20136;-65
2022/04/18 00:55:20;;;;;;;7.97;4.78;;;;;;;;;;4190689;34;20181;-65
2022/04/18 00:57:48;;;;;;;5.87;4.75;;;;;;;;;;4189642;34;20112;-65
2022/04/18 01:00:14;;;;;;;9.50;4.70;;;;;;;;;;4189618;34;20098;-65
2022/04/18 01:02:41;;;;;;;8.27;4.80;;;;;;;;;;4191019;34;20577;-66
2022/04/18 01:05:07;;;;;;;6.78;4.70;;;;;;;;;;4190956;34;20314;-66
2022/04/18 01:07:34;;;;;;;5.90;4.25;;;;;;;;;;4190762;34;20198;-65
2022/04/18 01:10:01;;;;;;;4.80;4.00;;;;;;;;;;4189589;34;20122;-63
2022/04/18 01:12:27;;;;;;;9.63;4.90;;;;;;;;;;4190944;34;20122;-62
2022/04/18 01:14:53;;;;;;;6.75;4.32;;;;;;;;;;4190815;34;20164;-63
2022/04/18 01:17:19;;;;;;;9.35;4.18;;;;;;;;;;4177923;34;20209;-62
2022/04/18 01:19:45;;;;;;;8.15;4.93;;;;;;;;;;4191063;34;20193;-63
2022/04/18 01:22:15;;;;;;;6.18;4.45;;;;;;;;;;4190750;34;20517;-63
2022/04/18 01:30:12;;;;;;;9.05;5.22;;;;;;;;;;4190992;34;20189;-63
2022/04/18 01:32:38;;;;;;;9.57;4.75;;;;;;;;;;4190706;34;20114;-63
2022/04/18 01:35:04;;;;;;;9.85;4.25;;;;;;;;;;4191009;34;20140;-63
2022/04/18 01:37:30;;;;;;;5.45;4.50;;;;;;;;;;4190640;34;20098;-63
2022/04/18 01:39:56;;;;;;;7.43;4.65;;;;;;;;;;4190564;34;20111;-63
2022/04/18 01:42:22;;;;;;;7.47;4.93;;;;;;;;;;4177748;34;20117;-63
2022/04/18 01:44:48;;;;;;;10.75;5.97;;;;;;;;;;4189553;34;20110;-63
2022/04/18 01:47:14;;;;;;;11.68;4.80;;;;;;;;;;4190680;34;20262;-63
2022/04/18 01:49:41;;;;;;;6.68;4.80;;;;;;;;;;4190402;34;20118;-61
2022/04/18 01:52:07;;;;;;;9.25;4.30;;;;;;;;;;4190664;34;20122;-61
2022/04/18 01:54:33;;;;;;;14.27;4.12;;;;;;;;;;4197161;34;20454;-60
2022/04/18 01:56:58;;;;;;;10.93;4.20;;;;;;;;;;4204071;34;20193;-60
2022/04/18 01:59:25;;;;;;;8.98;3.90;;;;;;;;;;4203938;34;20117;-63
2022/04/18 02:01:50;;;;;;;7.45;4.28;;;;;;;;;;4204333;34;20121;-63
2022/04/18 02:04:16;;;;;;;8.55;4.82;;;;;;;;;;4191274;34;20528;-61
2022/04/18 02:06:42;;;;;;;6.95;3.58;;;;;;;;;;4203927;34;20529;-62
2022/04/18 02:09:08;;;;;;;10.65;4.20;;;;;;;;;;4203573;34;20169;-62
2022/04/18 02:11:34;;;;;;;8.68;3.62;;;;;;;;;;4203540;34;20110;-63
2022/04/18 02:14:00;;;;;;;6.53;3.90;;;;;;;;;;4203984;34;20189;-62
2022/04/18 02:16:28;;;;;;;6.32;3.92;;;;;;;;;;4203994;34;20118;-62
2022/04/18 02:18:55;;;;;;;11.20;4.70;;;;;;;;;;4193098;34;20670;-64
2022/04/18 02:21:21;;;;;;;14.63;4.97;;;;;;;;;;4177432;34;20234;-63
2022/04/18 02:23:47;;;;;;;7.50;4.35;;;;;;;;;;4190154;34;20443;-63
2022/04/18 02:26:12;;;;;;;10.32;5.53;;;;;;;;;;4190269;34;20137;-63
2022/04/18 02:28:40;;;;;;;10.57;5.22;;;;;;;;;;4190029;34;20149;-63
2022/04/18 02:31:06;;;;;;;9.73;4.55;;;;;;;;;;4189922;34;20514;-63
2022/04/18 02:33:33;;;;;;;10.80;4.60;;;;;;;;;;4177234;34;20432;-62
2022/04/18 02:36:01;;;;;;;9.23;5.25;;;;;;;;;;4189949;34;20129;-62
2022/04/18 02:38:30;;;;;;;24.70;5.68;;;;;;;;;;4190049;34;20278;-63
2022/04/18 02:40:56;;;;;;;29.23;5.78;;;;;;;;;;4188660;34;20218;-62
2022/04/18 02:43:22;;;;;;;16.20;5.22;;;;;;;;;;4190291;34;20125;-63
2022/04/18 02:45:48;;;;;;;19.60;5.50;;;;;;;;;;4177141;34;20118;-62
2022/04/18 02:48:14;;;;;;;10.13;4.28;;;;;;;;;;4189956;34;20547;-61
2022/04/18 02:50:40;;;;;;;17.62;5.62;;;;;;;;;;4189771;34;20114;-62
2022/04/18 02:53:06;;;;;;;14.63;4.82;;;;;;;;;;4189633;34;20561;-62
2022/04/18 02:55:32;;;;;;;12.20;5.10;;;;;;;;;;4192383;34;20994;-61
2022/04/18 02:57:58;;;;;;;8.18;4.82;;;;;;;;;;4205717;34;20129;-61
2022/04/18 03:00:23;;;;;;;9.57;5.00;;;;;;;;;;4206052;34;20129;-61
2022/04/18 03:02:49;;;;;;;9.30;4.68;;;;;;;;;;4205797;34;20128;-62
2022/04/18 03:05:15;;;;;;;8.07;4.32;;;;;;;;;;4205674;34;20114;-61
2022/04/18 03:07:41;;;;;;;23.70;5.55;;;;;;;;;;4205564;34;20117;-60
2022/04/18 03:10:08;;;;;;;7.50;4.32;;;;;;;;;;4192986;34;20112;-60
2022/04/18 03:12:34;;;;;;;8.50;4.82;;;;;;;;;;4205912;34;20121;-60
2022/04/18 03:15:00;;;;;;;11.35;5.40;;;;;;;;;;4205822;34;20109;-60
2022/04/18 03:17:27;;;;;;;7.65;4.85;;;;;;;;;;4193030;34;20567;-61
2022/04/18 03:19:52;;;;;;;13.62;5.00;;;;;;;;;;4205721;34;20114;-61
2022/04/18 03:22:19;;;;;;;10.35;4.93;;;;;;;;;;4205488;34;20144;-61
2022/04/18 03:24:46;;;;;;;8.45;4.72;;;;;;;;;;4205396;34;20201;-61
2022/04/18 03:27:12;;;;;;;18.33;4.95;;;;;;;;;;4205832;34;20124;-60
2022/04/18 03:29:38;;;;;;;14.27;4.78;;;;;;;;;;4205100;34;20174;-60
2022/04/18 03:32:05;;;;;;;14.93;5.50;;;;;;;;;;4204761;34;20239;-62
2022/04/18 03:34:31;;;;;;;16.15;5.30;;;;;;;;;;4205658;34;20094;-61
2022/04/18 03:39:50;;;;;;;32.50;6.35;;;;;;;;;;4205652;34;20149;-61
2022/04/18 03:42:28;;;;;;;11.85;5.05;;;;;;;;;;4204003;34;20118;-61
2022/04/18 03:44:56;;;;;;;16.83;8.35;;;;;;;;;;4205381;34;20124;-60
2022/04/18 03:47:22;;;;;;;16.37;8.48;;;;;;;;;;4205196;34;20237;-61
2022/04/18 03:49:48;;;;;;;15.07;8.27;;;;;;;;;;4205224;34;20143;-64
2022/04/18 03:52:14;;;;;;;21.25;8.65;;;;;;;;;;4205417;34;20201;-69
2022/04/18 03:54:40;;;;;;;11.12;7.50;;;;;;;;;;4203224;34;20234;-61
2022/04/18 03:57:07;;;;;;;13.98;7.95;;;;;;;;;;4204608;34;20778;-68
2022/04/18 03:59:33;;;;;;;11.48;7.75;;;;;;;;;;4205123;34;20540;-63
2022/04/18 04:01:59;;;;;;;10.90;6.87;;;;;;;;;;4205160;34;20125;-63
2022/04/18 04:04:25;;;;;;;11.90;6.72;;;;;;;;;;4192479;34;20148;-60
2022/04/18 04:06:51;;;;;;;18.37;7.85;;;;;;;;;;4204387;34;20467;-63
2022/04/18 04:09:17;;;;;;;24.58;7.80;;;;;;;;;;4205046;34;20144;-63
2022/04/18 04:11:43;;;;;;;56.45;8.40;;;;;;;;;;4205155;34;20506;-60
2022/04/18 04:14:09;;;;;;;26.48;7.25;;;;;;;;;;4205120;34;20097;-59
2022/04/18 04:16:37;;;;;;;18.90;9.52;;;;;;;;;;4203624;34;20714;-61
2022/04/18 04:19:03;;;;;;;14.57;9.02;;;;;;;;;;4204156;34;20115;-61
2022/04/18 04:21:29;;;;;;;19.27;9.48;;;;;;;;;;4204664;34;20201;-60
2022/04/18 04:23:55;;;;;;;20.10;9.10;;;;;;;;;;4205290;34;20201;-59
2022/04/18 04:26:21;;;;;;;18.25;8.98;;;;;;;;;;4202733;34;20505;-57
2022/04/18 04:28:48;;;;;;;16.05;9.02;;;;;;;;;;4197787;34;20144;-59
2022/04/18 04:31:14;;;;;;;20.70;8.55;;;;;;;;;;4190099;34;20124;-61
2022/04/18 04:33:40;;;;;;;15.73;8.05;;;;;;;;;;4191120;34;20129;-61
2022/04/18 04:36:06;;;;;;;22.08;9.52;;;;;;;;;;4189564;34;20214;-61
2022/04/18 04:38:31;;;;;;;15.73;8.13;;;;;;;;;;4191187;34;20137;-62
2022/04/18 04:40:58;;;;;;;14.63;8.43;;;;;;;;;;4191091;34;20126;-61
2022/04/18 04:43:28;;;;;;;19.25;8.27;;;;;;;;;;4191078;34;20129;-60
2022/04/18 04:45:55;;;;;;;25.35;8.65;;;;;;;;;;4191016;34;20103;-60
2022/04/18 04:48:24;;;;;;;19.30;9.13;;;;;;;;;;4178431;34;20114;-61
2022/04/18 04:50:50;;;;;;;14.07;8.25;;;;;;;;;;4191029;34;20102;-59
2022/04/18 04:53:16;;;;;;;11.15;8.75;;;;;;;;;;4191047;34;20114;-62
2022/04/18 04:55:43;;;;;;;14.05;8.27;;;;;;;;;;4190870;34;20120;-59
2022/04/18 04:58:10;;;;;;;13.05;8.27;;;;;;;;;;4191248;34;20121;-60
2022/04/18 05:00:36;;;;;;;17.80;9.05;;;;;;;;;;4191181;34;20197;-60
2022/04/18 05:03:03;;;;;;;15.35;8.98;;;;;;;;;;4191222;34;20120;-60
2022/04/18 05:05:29;;;;;;;15.32;8.00;;;;;;;;;;4190899;34;20747;-60
2022/04/18 05:07:58;;;;;;;15.18;9.98;;;;;;;;;;4190992;34;20486;-60
2022/04/18 05:10:24;;;;;;;18.85;10.10;;;;;;;;;;4191016;34;20110;-59
2022/04/18 05:12:50;;;;;;;18.10;9.90;;;;;;;;;;4190891;34;20225;-60
2022/04/18 05:15:16;;;;;;;16.85;9.38;;;;;;;;;;4190785;34;20693;-60
2022/04/18 05:17:42;;;;;;;20.58;9.68;;;;;;;;;;4190873;34;20114;-59
2022/04/18 05:20:09;;;;;;;19.05;10.55;;;;;;;;;;4190952;34;20228;-61
2022/04/18 05:22:35;;;;;;;18.08;9.20;;;;;;;;;;4190754;34;20233;-57
2022/04/18 05:25:01;;;;;;;12.88;8.55;;;;;;;;;;4166647;34;20137;-59
2022/04/18 05:27:27;;;;;;;16.67;8.45;;;;;;;;;;4189568;34;20201;-59
2022/04/18 05:29:53;;;;;;;13.65;8.27;;;;;;;;;;4190503;34;20530;-59
2022/04/18 05:32:19;;;;;;;10.20;8.18;;;;;;;;;;4190814;34;20129;-60
2022/04/18 05:34:45;;;;;;;10.93;7.47;;;;;;;;;;4190747;34;20140;-60
2022/04/18 05:37:11;;;;;;;12.25;7.75;;;;;;;;;;4190697;34;20201;-60
2022/04/18 05:39:37;;;;;;;15.98;8.10;;;;;;;;;;4190501;34;20557;-59
2022/04/18 05:42:04;;;;;;;15.55;8.77;;;;;;;;;;4190648;34;20141;-59
2022/04/18 05:44:32;;;;;;;11.95;8.27;;;;;;;;;;4177786;34;20218;-60
2022/04/18 05:46:59;;;;;;;19.17;8.40;;;;;;;;;;4190321;34;20468;-61
2022/04/18 05:49:25;;;;;;;12.98;8.18;;;;;;;;;;4190363;34;20560;-60
2022/04/18 05:51:50;;;;;;;13.18;7.40;;;;;;;;;;4190465;34;20128;-59
2022/04/18 05:54:16;;;;;;;16.17;8.50;;;;;;;;;;4190603;34;20138;-60
2022/04/18 05:56:42;;;;;;;12.80;8.65;;;;;;;;;;4188895;34;20645;-59
2022/04/18 05:59:08;;;;;;;16.30;8.70;;;;;;;;;;4190351;34;20595;-59
2022/04/18 06:01:35;;;;;;;17.33;8.55;;;;;;;;;;4190252;34;20177;-59
2022/04/18 06:04:02;;;;;;;11.70;7.75;;;;;;;;;;4190369;34;20120;-59
2022/04/18 06:06:28;;;;;;;16.25;8.82;;;;;;;;;;4190150;34;20571;-62
2022/04/18 06:08:54;;;;;;;13.02;7.85;;;;;;;;;;4190494;34;20117;-61
2022/04/18 06:11:20;;;;;;;12.10;8.02;;;;;;;;;;4190138;34;20177;-61
2022/04/18 06:13:46;;;;;;;16.02;8.63;;;;;;;;;;4190236;34;20513;-61
2022/04/18 06:16:12;;;;;;;12.13;8.25;;;;;;;;;;4190069;34;20113;-60
2022/04/18 06:18:38;;;;;;;11.82;8.35;;;;;;;;;;4190222;34;20126;-58
2022/04/18 06:21:05;;;;;;;11.30;7.82;;;;;;;;;;4190178;34;20189;-58
2022/04/18 06:23:31;;;;;;;10.20;8.32;;;;;;;;;;4190072;34;20231;-58
2022/04/18 06:25:57;;;;;;;11.75;8.30;;;;;;;;;;4190159;34;20110;-58
2022/04/18 06:28:23;;;;;;;10.00;8.10;;;;;;;;;;4190099;34;20557;-58
2022/04/18 06:30:50;;;;;;;14.38;7.72;;;;;;;;;;4190976;34;20113;-58
2022/04/18 06:33:16;;;;;;;13.20;8.50;;;;;;;;;;4192460;34;20214;-59
2022/04/18 06:35:45;;;;;;;11.73;8.02;;;;;;;;;;4192040;34;20198;-59
2022/04/18 06:38:11;;;;;;;13.50;7.87;;;;;;;;;;4192179;34;20780;-60
2022/04/18 06:40:37;;;;;;;18.67;8.32;;;;;;;;;;4192196;34;20180;-60
2022/04/18 06:43:03;;;;;;;13.50;7.75;;;;;;;;;;4191213;34;20106;-59
2022/04/18 06:45:31;;;;;;;13.00;8.05;;;;;;;;;;4192073;34;20098;-59
2022/04/18 06:47:57;;;;;;;18.77;8.65;;;;;;;;;;4192101;34;20099;-58
2022/04/18 06:50:23;;;;;;;15.80;10.27;;;;;;;;;;4192172;34;20181;-59
2022/04/18 06:52:54;;;;;;;14.63;8.45;;;;;;;;;;4192059;34;20503;-59
2022/04/18 06:55:20;;;;;;;13.48;8.27;;;;;;;;;;4191998;34;20447;-59
2022/04/18 06:57:46;;;;;;;12.18;8.23;;;;;;;;;;4192314;34;20239;-59
2022/04/18 07:00:12;;;;;;;17.95;9.30;;;;;;;;;;4191874;34;20110;-59
2022/04/18 07:02:50;;;;;;;10.27;8.45;;;;;;;;;;4191929;34;20571;-59
2022/04/18 07:05:16;;;;;;;11.15;8.23;;;;;;;;;;4192122;34;20142;-58
2022/04/18 07:07:43;;;;;;;14.68;7.93;;;;;;;;;;4191933;34;20118;-60
2022/04/18 07:10:09;;;;;;;11.30;8.25;;;;;;;;;;4191850;34;20192;-59
2022/04/18 07:12:35;;;;;;;14.23;8.38;;;;;;;;;;4168110;34;20094;-60
2022/04/18 07:15:01;;;;;;;14.48;8.02;;;;;;;;;;4191892;34;20201;-60
2022/04/18 07:17:27;;;;;;;14.73;8.65;;;;;;;;;;4191870;34;20147;-60
2022/04/18 07:19:53;;;;;;;17.23;7.65;;;;;;;;;;4191578;34;20523;-60
2022/04/18 07:22:19;;;;;;;11.18;7.93;;;;;;;;;;4191573;34;20121;-60
2022/04/18 07:24:45;;;;;;;13.68;8.32;;;;;;;;;;4191513;34;20205;-60
2022/04/18 07:27:11;;;;;;;15.40;8.65;;;;;;;;;;4191471;34;20559;-60
2022/04/18 07:29:37;;;;;;;16.10;9.43;;;;;;;;;;4191579;34;20225;-60
2022/04/18 07:32:05;;;;;;;15.05;8.88;;;;;;;;;;4178411;34;20214;-60
2022/04/18 07:34:33;;;;;;;21.60;9.80;;;;;;;;;;4191362;34;20114;-57
2022/04/18 07:36:59;;;;;;;15.30;8.68;;;;;;;;;;4191722;34;20173;-58
2022/04/18 07:39:25;;;;;;;16.92;10.20;;;;;;;;;;4191781;34;20137;-60
2022/04/18 07:41:51;;;;;;;20.05;9.70;;;;;;;;;;4190683;34;20090;-58
2022/04/18 07:44:17;;;;;;;18.80;10.02;;;;;;;;;;4191893;34;20228;-58
2022/04/18 07:46:43;;;;;;;20.17;9.20;;;;;;;;;;4191707;34;20180;-58
2022/04/18 07:49:09;;;;;;;20.60;10.70;;;;;;;;;;4191442;34;20124;-57
2022/04/18 07:51:36;;;;;;;17.62;9.80;;;;;;;;;;4191366;34;20099;-57
2022/04/18 07:54:14;;;;;;;21.95;12.20;;;;;;;;;;4191740;34;20208;-60
2022/04/18 07:56:41;;;;;;;21.42;10.57;;;;;;;;;;4191282;34;20120;-60
2022/04/18 07:59:07;;;;;;;18.95;11.45;;;;;;;;;;4191519;34;20105;-60
2022/04/18 08:01:33;;;;;;;18.85;11.12;;;;;;;;;;4191242;34;20198;-60
2022/04/18 08:04:00;;;;;;;19.25;9.80;;;;;;;;;;4179019;34;20110;-57
2022/04/18 08:06:27;;;;;;;18.12;10.77;;;;;;;;;;4191250;34;20214;-58
2022/04/18 08:08:53;;;;;;;21.50;12.88;;;;;;;;;;4191241;34;20110;-57
2022/04/18 08:11:19;;;;;;;19.37;12.77;;;;;;;;;;4191310;34;20446;-59
2022/04/18 08:13:46;;;;;;;21.87;12.52;;;;;;;;;;4191667;34;20217;-60
2022/04/18 08:16:13;;;;;;;19.95;10.77;;;;;;;;;;4189745;34;20114;-60
2022/04/18 08:18:42;;;;;;;19.15;12.35;;;;;;;;;;4191549;34;20198;-61
2022/04/18 08:21:08;;;;;;;19.37;10.40;;;;;;;;;;4191049;34;20214;-61
2022/04/18 08:23:35;;;;;;;30.25;11.98;;;;;;;;;;4191287;34;20128;-61
2022/04/18 08:26:03;;;;;;;18.52;10.95;;;;;;;;;;4191261;34;20110;-61
2022/04/18 08:28:29;;;;;;;20.42;12.02;;;;;;;;;;4191269;34;20609;-61
2022/04/18 08:30:55;;;;;;;18.55;10.18;;;;;;;;;;4187929;34;20301;-62
2022/04/18 08:33:21;;;;;;;19.02;10.85;;;;;;;;;;4205024;34;20133;-62
2022/04/18 08:35:47;;;;;;;15.27;10.57;;;;;;;;;;4204758;34;20116;-62
2022/04/18 08:38:13;;;;;;;20.83;11.35;;;;;;;;;;4192112;34;20180;-64
2022/04/18 08:40:42;;;;;;;16.17;11.05;;;;;;;;;;4191931;34;20133;-64
2022/04/18 08:43:08;;;;;;;14.25;10.50;;;;;;;;;;4204918;34;20633;-64
2022/04/18 08:45:39;;;;;;;18.70;11.45;;;;;;;;;;4204942;34;20281;-61
2022/04/18 08:53:36;;;;;;;;;;;;;;;;;;4193845;34;20274;-60
2022/04/18 08:56:02;;;;;;;15.40;10.13;;;;;;;;;;4204671;34;20006;-60
2022/04/18 08:58:28;;;;;;;15.98;11.40;;;;;;;;;;4204715;34;20513;-59
2022/04/18 09:00:55;;;;;;;18.30;11.52;;;;;;;;;;4180139;34;20966;-64
2022/04/18 09:03:22;;;;;;;24.27;14.13;;;;;;;;;;4191833;34;20089;-63
2022/04/18 09:05:48;;;;;;;17.55;12.68;;;;;;;;;;4197479;34;20094;-63
2022/04/18 09:08:15;;;;;;;21.58;12.73;;;;;;;;;;4202992;34;20621;-63
2022/04/18 09:10:42;;;;;;;18.55;12.95;;;;;;;;;;4190654;34;20574;-65
2022/04/18 09:13:10;;;;;;;17.90;12.98;;;;;;;;;;4196183;34;20120;-62
2022/04/18 09:15:43;;;;;;;17.02;11.95;;;;;;;;;;4214513;34;20122;-67
2022/04/18 09:18:13;;;;;;;18.77;13.45;;;;;;;;;;4204575;34;20618;-65
2022/04/18 09:20:44;;;;;;;17.30;12.80;;;;;;;;;;4204417;34;20503;-67
2022/04/18 09:23:33;;;;;;;22.98;14.43;;;;;;;;;;4203374;34;20102;-67
2022/04/18 09:26:03;;;;;;;22.08;13.85;;;;;;;;;;4204301;34;20113;-66
2022/04/18 09:28:30;;;;;;;17.77;11.35;;;;;;;;;;4204595;34;20113;-62
2022/04/18 09:30:59;;;;;;;17.48;11.70;;;;;;;;;;4202833;34;20497;-61
2022/04/18 09:33:30;;;;;;;19.23;12.88;;;;;;;;;;4203082;34;20197;-61
2022/04/18 09:36:16;;;;;;;18.10;11.65;;;;;;;;;;4204146;34;20098;-61
2022/04/18 09:38:51;;;;;;;19.08;12.13;;;;;;;;;;4188069;34;20094;-60
2022/04/18 09:41:25;;;;;;;21.20;12.93;;;;;;;;;;4193869;34;20230;-62
2022/04/18 09:43:54;;;;;;;18.67;12.65;;;;;;;;;;4191534;34;20177;-62
2022/04/18 09:46:21;;;;;;;19.42;12.73;;;;;;;;;;4180441;34;20116;-61
2022/04/18 09:48:49;;;;;;;17.90;10.00;;;;;;;;;;4204233;34;20124;-61
2022/04/18 09:51:16;;;;;;;18.12;11.45;;;;;;;;;;4204131;34;20201;-62
2022/04/18 09:53:45;;;;;;;19.02;11.77;;;;;;;;;;4191689;34;20137;-62
2022/04/18 09:56:16;;;;;;;19.35;11.77;;;;;;;;;;4204357;34;20102;-62
2022/04/18 09:58:42;;;;;;;15.57;12.68;;;;;;;;;;4204493;34;20498;-62
2022/04/18 10:01:09;;;;;;;14.93;11.90;;;;;;;;;;4191044;34;20181;-62
2022/04/18 10:03:36;;;;;;;16.77;11.18;;;;;;;;;;4204386;34;20121;-62
2022/04/18 10:06:03;;;;;;;17.87;10.75;;;;;;;;;;4205250;34;20117;-63
2022/04/18 10:08:29;;;;;;;20.30;11.65;;;;;;;;;;4206263;34;20104;-58
2022/04/18 10:10:57;;;;;;;17.77;12.02;;;;;;;;;;4205875;34;20110;-59
2022/04/18 10:13:23;;;;;;;15.02;11.73;;;;;;;;;;4193340;34;20494;-59
2022/04/18 10:15:51;;;;;;;18.65;11.40;;;;;;;;;;4206036;34;20638;-59
2022/04/18 10:18:17;;;;;;;20.90;13.20;;;;;;;;;;4206397;34;20094;-59
2022/04/18 10:21:01;;;;;;;18.60;11.80;;;;;;;;;;4205849;34;20094;-58
2022/04/18 10:23:42;;;;;;;18.58;11.80;;;;;;;;;;4206065;34;20189;-59
2022/04/18 10:26:37;;;;;;;18.10;11.02;;;;;;;;;;4204702;34;20228;-59
2022/04/18 10:29:20;;;;;;;19.67;13.53;;;;;;;;;;4205959;34;20117;-60
2022/04/18 10:31:47;;;;;;;15.88;10.82;;;;;;;;;;4205780;34;20136;-59
2022/04/18 10:34:13;;;;;;;19.65;12.48;;;;;;;;;;4204540;34;20213;-59
2022/04/18 10:36:52;;;;;;;18.17;12.25;;;;;;;;;;4205728;34;20156;-59
2022/04/18 10:39:18;;;;;;;22.42;12.13;;;;;;;;;;4206148;34;20126;-59
2022/04/18 10:41:45;;;;;;;19.40;11.25;;;;;;;;;;4205563;34;20134;-59
2022/04/18 10:44:15;;;;;;;19.92;11.57;;;;;;;;;;4205866;34;20240;-59
2022/04/18 10:46:55;;;;;;;15.90;11.23;;;;;;;;;;4205755;34;20117;-60
2022/04/18 10:49:31;;;;;;;17.10;11.93;;;;;;;;;;4206021;34;20120;-59
2022/04/18 10:52:08;;;;;;;22.80;12.02;;;;;;;;;;4204287;34;20500;-58
2022/04/18 10:54:34;;;;;;;20.80;12.18;;;;;;;;;;4206013;34;20117;-58
2022/04/18 10:57:01;;;;;;;18.15;12.10;;;;;;;;;;4205803;34;20130;-59
2022/04/18 10:59:33;;;;;;;17.70;12.20;;;;;;;;;;4168886;34;20127;-58
2022/04/18 11:02:01;;;;;;;15.13;11.95;;;;;;;;;;4203576;34;20128;-59
2022/04/18 11:04:33;;;;;;;18.65;12.23;;;;;;;;;;4203795;34;20201;-59
2022/04/18 11:07:01;;;;;;;18.87;9.73;;;;;;;;;;4201981;34;20213;-59
2022/04/18 11:09:27;;;;;;;14.85;10.00;;;;;;;;;;4203515;34;20117;-59
2022/04/18 11:12:05;;;;;;;19.65;12.00;;;;;;;;;;4190539;34;20128;-59
2022/04/18 11:14:41;;;;;;;13.30;10.68;;;;;;;;;;4190553;34;20197;-59
2022/04/18 11:17:10;;;;;;;17.10;12.18;;;;;;;;;;4205339;34;20114;-59
2022/04/18 11:19:37;;;;;;;19.75;10.43;;;;;;;;;;4192550;34;20176;-59
2022/04/18 11:22:15;;;;;;;9.63;6.35;;;;;;;;;;4205425;34;20125;-59
2022/04/18 11:24:47;;;;;;;15.65;9.90;;;;;;;;;;4205820;34;20181;-59
2022/04/18 11:27:18;;;;;;;16.80;10.02;;;;;;;;;;4192719;34;20098;-59
2022/04/18 11:29:56;;;;;;;12.55;9.65;;;;;;;;;;4192737;34;20102;-59
2022/04/18 11:32:23;;;;;;;14.77;9.07;;;;;;;;;;4205429;34;20704;-59
2022/04/18 11:34:51;;;;;;;14.15;8.30;;;;;;;;;;4205469;34;20132;-59
2022/04/18 11:37:26;;;;;;;9.82;8.00;;;;;;;;;;4205459;34;20113;-59
2022/04/18 11:39:54;;;;;;;13.75;9.65;;;;;;;;;;4192569;34;20286;-58
2022/04/18 11:42:21;;;;;;;11.85;9.45;;;;;;;;;;4205484;34;20116;-59
2022/04/18 11:44:49;;;;;;;13.90;10.13;;;;;;;;;;4192409;34;20139;-58
2022/04/18 11:47:20;;;;;;;12.43;9.50;;;;;;;;;;4192737;34;20184;-59
2022/04/18 11:49:46;;;;;;;16.85;12.07;;;;;;;;;;4192618;34;20229;-59
2022/04/18 11:52:19;;;;;;;13.13;9.75;;;;;;;;;;4205323;34;20133;-58
2022/04/18 11:55:00;;;;;;;15.07;9.98;;;;;;;;;;4205238;34;20457;-59
2022/04/18 11:57:28;;;;;;;19.30;9.30;;;;;;;;;;4205222;34;20133;-59
2022/04/18 11:59:55;;;;;;;15.63;11.30;;;;;;;;;;4205227;34;20126;-59
2022/04/18 12:07:55;;;;;;;15.80;10.30;;;;;;;;;;4205054;34;20217;-59
2022/04/18 12:10:24;;;;;;;22.65;10.45;;;;;;;;;;4205168;34;20132;-59
2022/04/18 12:12:50;;;;;;;14.52;11.02;;;;;;;;;;4205211;34;20547;-58
2022/04/18 12:15:16;;;;;;;23.02;14.23;;;;;;;;;;4205317;34;20165;-59
2022/04/18 12:17:42;;;;;;;16.20;10.32;;;;;;;;;;4203808;34;20124;-59
2022/04/18 12:20:22;;;;;;;15.02;8.93;;;;;;;;;;4191781;34;20524;-59
2022/04/18 12:22:52;;;;;;;14.57;9.55;;;;;;;;;;4180524;34;20121;-59
2022/04/18 12:25:22;;;;;;;13.20;8.50;;;;;;;;;;4204930;34;20561;-59
2022/04/18 12:27:50;;;;;;;15.48;9.05;;;;;;;;;;4191471;34;20135;-58
2022/04/18 12:30:17;;;;;;;17.92;9.20;;;;;;;;;;4192165;34;20114;-58
2022/04/18 12:32:47;;;;;;;16.08;10.30;;;;;;;;;;4180321;34;20196;-58
2022/04/18 12:35:40;;;;;;;17.15;11.55;;;;;;;;;;4180895;34;20113;-57
2022/04/18 12:38:09;;;;;;;24.20;12.10;;;;;;;;;;4175828;34;20141;-57
2022/04/18 12:40:40;;;;;;;17.50;10.32;;;;;;;;;;4204769;34;20110;-63
2022/04/18 12:43:10;;;;;;;14.35;9.70;;;;;;;;;;4204020;34;20128;-57
2022/04/18 12:45:47;;;;;;;22.15;12.88;;;;;;;;;;4204455;34;20156;-71
2022/04/18 12:48:13;;;;;;;14.55;10.32;;;;;;;;;;4204918;34;20116;-58
2022/04/18 12:50:40;;;;;;;15.20;11.60;;;;;;;;;;4204315;34;20562;-60
2022/04/18 12:53:06;;;;;;;15.75;11.65;;;;;;;;;;4192281;34;20482;-61
2022/04/18 12:55:32;;;;;;;17.70;11.98;;;;;;;;;;4203156;34;20130;-58
2022/04/18 12:57:59;;;;;;;20.55;12.30;;;;;;;;;;4204772;34;20132;-58
2022/04/18 13:00:33;;;;;;;25.98;14.07;;;;;;;;;;4204703;34;20695;-58
2022/04/18 13:03:04;;;;;;;20.73;14.43;;;;;;;;;;4200526;34;20114;-56
2022/04/18 13:05:32;;;;;;;24.10;15.38;;;;;;;;;;4191952;34;20114;-57
2022/04/18 13:08:02;;;;;;;26.55;14.75;;;;;;;;;;4204277;34;20118;-57
2022/04/18 13:10:31;;;;;;;21.62;15.38;;;;;;;;;;4198118;34;20220;-58
2022/04/18 13:13:17;;;;;;;20.83;15.50;;;;;;;;;;4190878;34;20130;-60
2022/04/18 13:15:46;;;;;;;22.13;15.40;;;;;;;;;;4190605;34;20574;-58
2022/04/18 13:18:22;;;;;;;21.08;13.93;;;;;;;;;;4191439;34;20482;-58
2022/04/18 13:20:49;;;;;;;23.10;14.87;;;;;;;;;;4204278;34;20149;-59
2022/04/18 13:23:15;;;;;;;22.13;16.83;;;;;;;;;;4204376;34;20590;-57
2022/04/18 13:25:41;;;;;;;17.92;13.93;;;;;;;;;;4191719;34;20101;-57
2022/04/18 13:28:09;;;;;;;21.60;13.30;;;;;;;;;;4204577;34;20473;-58
2022/04/18 13:30:39;;;;;;;20.33;11.98;;;;;;;;;;4204398;34;20098;-59
2022/04/18 13:33:07;;;;;;;16.85;11.70;;;;;;;;;;4204594;34;20089;-59
2022/04/18 13:38:22;;;;;;;13.30;10.65;;;;;;;;;;4190865;34;20122;-63
2022/04/18 13:40:49;;;;;;;17.40;10.40;;;;;;;;;;4190642;34;20132;-60
2022/04/18 13:43:15;;;;;;;15.52;10.68;;;;;;;;;;4190753;34;20101;-59
2022/04/18 13:45:41;;;;;;;19.23;10.02;;;;;;;;;;4177766;34;20122;-59
2022/04/18 13:48:08;;;;;;;12.40;9.10;;;;;;;;;;4177782;34;20104;-60
2022/04/18 13:50:34;;;;;;;16.92;12.30;;;;;;;;;;4177905;34;20129;-60
2022/04/18 13:53:01;;;;;;;16.50;12.82;;;;;;;;;;4190693;34;20098;-60
2022/04/18 13:55:29;;;;;;;16.25;13.20;;;;;;;;;;4177768;34;20436;-60
2022/04/18 13:57:55;;;;;;;14.25;12.73;;;;;;;;;;4189035;34;20122;-60
2022/04/18 14:00:22;;;;;;;20.95;14.02;;;;;;;;;;4197283;34;20446;-60
2022/04/18 14:02:48;;;;;;;18.98;14.52;;;;;;;;;;4194656;34;20175;-61
2022/04/18 14:05:14;;;;;;;20.40;13.82;;;;;;;;;;4201435;34;20089;-60
2022/04/18 14:07:40;;;;;;;18.62;11.32;;;;;;;;;;4203032;34;20106;-58
2022/04/18 14:10:06;;;;;;;15.32;12.10;;;;;;;;;;4190074;34;20181;-60
2022/04/18 14:12:32;;;;;;;14.18;10.75;;;;;;;;;;4190581;34;20197;-59
2022/04/18 14:20:31;;;;;;;13.50;7.78;;;;;;;;;;4203976;34;20221;-59
2022/04/18 14:22:58;;;;;;;14.80;10.02;;;;;;;;;;4203567;34;20133;-62
2022/04/18 14:25:28;;;;;;;9.38;7.28;;;;;;;;;;4203858;34;20117;-60
2022/04/18 14:27:54;;;;;;;9.63;6.55;;;;;;;;;;4214015;34;20133;-60
2022/04/18 14:30:20;;;;;;;10.68;6.85;;;;;;;;;;4202330;34;20118;-61
2022/04/18 14:32:46;;;;;;;8.93;6.82;;;;;;;;;;4203935;34;20560;-60
2022/04/18 14:35:13;;;;;;;9.52;6.78;;;;;;;;;;4191743;34;20141;-59
2022/04/18 14:37:41;;;;;;;10.60;7.43;;;;;;;;;;4188607;34;20459;-59
2022/04/18 14:40:09;;;;;;;12.35;7.68;;;;;;;;;;4189844;34;20150;-58
2022/04/18 14:42:35;;;;;;;12.80;7.37;;;;;;;;;;4190220;34;20141;-59
2022/04/18 14:45:02;;;;;;;10.85;7.40;;;;;;;;;;4190136;34;20167;-58
2022/04/18 14:47:28;;;;;;;12.23;6.37;;;;;;;;;;4190166;34;20129;-58
2022/04/18 14:49:54;;;;;;;9.25;7.50;;;;;;;;;;4177156;34;20160;-58
2022/04/18 14:52:22;;;;;;;8.95;7.68;;;;;;;;;;4191445;34;20467;-57
2022/04/18 14:54:51;;;;;;;8.75;7.22;;;;;;;;;;4192100;34;20184;-58
2022/04/18 14:57:18;;;;;;;8.65;7.32;;;;;;;;;;4191873;34;20126;-58
2022/04/18 14:59:47;;;;;;;10.05;7.43;;;;;;;;;;4192058;34;20125;-58
2022/04/18 15:02:15;;;;;;;11.32;8.10;;;;;;;;;;4203192;34;20101;-57
2022/04/18 15:04:41;;;;;;;10.88;8.32;;;;;;;;;;4192733;34;20180;-58
2022/04/18 15:07:07;;;;;;;11.32;8.00;;;;;;;;;;4205997;34;20119;-58
2022/04/18 15:09:33;;;;;;;9.77;7.87;;;;;;;;;;4181138;34;20126;-58
2022/04/18 15:11:59;;;;;;;12.18;8.18;;;;;;;;;;4205428;34;20218;-57
2022/04/18 15:14:26;;;;;;;13.25;9.30;;;;;;;;;;4178830;34;20126;-62
2022/04/18 15:16:51;;;;;;;16.05;10.18;;;;;;;;;;4198415;34;20504;-59
2022/04/18 15:19:18;;;;;;;16.10;9.60;;;;;;;;;;4202654;34;20206;-58